Time;durP1;ratioP1;P1;durP2;ratioP2;P2;SDS_P1;SDS_P2;PMS_P1;PMS_P2;Temp;Humidity;BMP_temperature;BMP_pressure;BME280_temperature;BME280_humidity;BME280_pressure;Samples;Min_cycle;Max_cycle;Signal;HPM_P1;HPM_P2
2021/03/24 00:02:00;;;;;;;;;;;;;;;2.35;77.83;100023.61;1702511;84;20569;-57
2021/03/24 00:05:07;;;;;;;;;;;;;;;2.41;77.52;100032.55;1702454;84;20285;-56
2021/03/24 00:08:13;;;;;;;;;;;;;;;2.37;77.30;100032.44;1702903;83;20252;-56
2021/03/24 00:11:18;;;;;;;;;;;;;;;2.31;77.39;100020.83;1702615;84;20292;-56
2021/03/24 00:14:21;;;;;;;;;;;;;;;2.27;77.46;100032.86;1702616;83;20252;-56
2021/03/24 00:17:27;;;;;;;;;;;;;;;2.21;77.46;100030.22;1712081;82;20209;-56
2021/03/24 00:20:34;;;;;;;;;;;;;;;2.26;77.63;100035.21;1684690;85;20210;-57
2021/03/24 00:23:37;;;;;;;;;;;;;;;2.22;77.49;100033.78;1684638;85;20222;-56
2021/03/24 00:26:41;;;;;;;;;;;;;;;2.12;77.73;100043.16;1684593;85;20214;-56
2021/03/24 00:29:45;;;;;;;;;;;;;;;2.12;78.26;100035.55;1695706;83;20217;-57
2021/03/24 00:32:50;;;;;;;;;;;;;;;2.14;78.39;100031.71;1695676;85;20259;-56
2021/03/24 00:35:55;;;;;;;;;;;;;;;2.17;78.35;100042.76;1698397;83;20231;-57
2021/03/24 00:38:59;;;;;;;;;;;;;;;2.18;78.34;100045.81;1696326;83;20252;-56
2021/03/24 00:42:03;;;;;;;;;;;;;;;2.23;78.41;100043.58;1698286;79;20243;-56
2021/03/24 00:45:08;;;;;;;;;;;;;;;2.29;78.39;100038.99;1720999;83;20211;-56
2021/03/24 00:48:13;;;;;;;;;;;;;;;2.28;78.10;100047.61;1720838;83;20220;-57
2021/03/24 00:51:19;;;;;;;;;;;;;;;2.27;77.98;100045.88;1720797;83;20267;-56
2021/03/24 00:54:23;;;;;;;;;;;;;;;2.27;77.91;100045.02;1725929;83;20195;-56
2021/03/24 00:57:27;;;;;;;;;;;;;;;2.23;77.79;100051.68;1721129;83;20278;-55
2021/03/24 01:00:34;;;;;;;;;;;;;;;2.22;77.90;100049.47;1726032;83;20219;-56
2021/03/24 01:03:40;;;;;;;;;;;;;;;2.24;77.85;100044.80;1721088;83;20275;-56
2021/03/24 01:06:47;;;;;;;;;;;;;;;2.20;79.00;100049.25;1720543;83;20619;-55
2021/03/24 01:10:13;;;;;;;;;;;;;;;2.20;79.40;100053.30;1725608;83;20295;-56
2021/03/24 01:13:20;;;;;;;;;;;;;;;2.30;78.97;100053.71;1721038;83;20220;-55
2021/03/24 01:16:25;;;;;;;;;;;;;;;2.31;78.64;100056.80;1725096;83;20227;-56
2021/03/24 01:19:29;;;;;;;;;;;;;;;2.34;78.56;100057.88;1721077;83;20295;-56
2021/03/24 01:22:35;;;;;;;;;;;;;;;2.28;79.59;100061.11;1725966;83;20266;-56
2021/03/24 01:25:39;;;;;;;;;;;;;;;2.26;80.73;100071.66;1721708;83;20511;-56
2021/03/24 01:28:44;;;;;;;;;;;;;;;2.30;80.48;100069.08;1755662;82;20189;-56
2021/03/24 01:31:49;;;;;;;;;;;;;;;2.30;79.82;100079.37;1755605;82;20320;-55
2021/03/24 01:34:54;;;;;;;;;;;;;;;2.20;79.10;100074.89;1755719;82;20328;-56
2021/03/24 01:37:58;;;;;;;;;;;;;;;2.11;78.76;100063.53;1755465;82;20273;-55
2021/03/24 01:41:06;;;;;;;;;;;;;;;2.08;78.53;100074.59;1755356;82;20316;-56
2021/03/24 01:44:11;;;;;;;;;;;;;;;2.06;78.33;100071.16;1754566;81;20727;-55
2021/03/24 01:47:16;;;;;;;;;;;;;;;2.07;77.98;100080.97;1755289;82;20252;-55
2021/03/24 01:50:26;;;;;;;;;;;;;;;2.11;77.91;100085.13;1754394;82;20253;-55
2021/03/24 01:53:32;;;;;;;;;;;;;;;2.10;77.45;100083.40;1755512;82;20240;-55
2021/03/24 01:56:40;;;;;;;;;;;;;;;2.06;77.45;100088.20;1755168;81;20663;-55
2021/03/24 01:59:45;;;;;;;;;;;;;;;2.07;77.45;100091.77;1755230;82;20217;-55
2021/03/24 02:02:50;;;;;;;;;;;;;;;2.06;77.42;100093.59;1755445;82;20250;-56
2021/03/24 02:05:55;;;;;;;;;;;;;;;2.05;77.56;100096.42;1755307;82;20257;-56
2021/03/24 02:09:03;;;;;;;;;;;;;;;2.07;77.58;100110.66;1755334;82;20264;-55
2021/03/24 02:12:23;;;;;;;;;;;;;;;2.01;77.64;100109.34;1755193;82;20279;-56
2021/03/24 02:15:32;;;;;;;;;;;;;;;2.01;77.94;100103.08;1755491;82;20264;-55
2021/03/24 02:18:40;;;;;;;;;;;;;;;2.12;78.00;100104.38;1755383;82;20561;-55
2021/03/24 02:21:45;;;;;;;;;;;;;;;2.14;77.70;100114.05;1755804;82;20268;-56
2021/03/24 02:25:09;;;;;;;;;;;;;;;2.14;77.71;100111.87;1755106;82;20190;-55
2021/03/24 02:28:17;;;;;;;;;;;;;;;2.18;77.68;100128.16;1755800;82;20214;-55
2021/03/24 02:31:21;;;;;;;;;;;;;;;2.16;77.61;100120.67;1755031;82;20312;-55
2021/03/24 02:34:31;;;;;;;;;;;;;;;2.16;77.55;100128.77;1755003;82;20276;-55
2021/03/24 02:37:36;;;;;;;;;;;;;;;2.19;77.57;100137.48;1754532;82;20206;-56
2021/03/24 02:40:42;;;;;;;;;;;;;;;2.26;77.34;100130.59;1755542;82;20412;-55
2021/03/24 02:43:47;;;;;;;;;;;;;;;2.22;77.33;100123.72;1755177;82;20189;-56
2021/03/24 02:46:51;;;;;;;;;;;;;;;2.16;77.95;100137.73;1740137;82;20290;-56
2021/03/24 02:49:55;;;;;;;;;;;;;;;2.11;79.07;100132.37;1740116;82;20292;-56
2021/03/24 02:53:01;;;;;;;;;;;;;;;2.11;80.11;100137.78;1739982;82;20324;-56
2021/03/24 02:56:07;;;;;;;;;;;;;;;2.12;80.71;100152.50;1740028;82;20282;-55
2021/03/24 02:59:14;;;;;;;;;;;;;;;2.16;80.73;100147.67;1740109;82;20245;-56
2021/03/24 03:02:23;;;;;;;;;;;;;;;2.15;80.98;100162.17;1740236;82;20230;-55
2021/03/24 03:05:33;;;;;;;;;;;;;;;2.13;80.54;100163.64;1737048;82;20281;-56
2021/03/24 03:08:48;;;;;;;;;;;;;;;2.16;79.95;100163.87;1737087;82;20278;-56
2021/03/24 03:12:00;;;;;;;;;;;;;;;2.18;79.59;100169.52;1736856;82;20274;-56
2021/03/24 03:15:08;;;;;;;;;;;;;;;2.17;79.14;100173.70;1737058;82;20317;-56
2021/03/24 03:18:21;;;;;;;;;;;;;;;2.05;79.26;100176.05;1740946;82;20279;-56
2021/03/24 03:21:39;;;;;;;;;;;;;;;2.03;79.68;100171.30;1745449;82;20545;-55
2021/03/24 03:24:49;;;;;;;;;;;;;;;2.08;79.78;100182.58;1715818;82;20230;-56
2021/03/24 03:27:56;;;;;;;;;;;;;;;2.15;79.61;100189.16;1714138;84;20280;-55
2021/03/24 03:31:00;;;;;;;;;;;;;;;2.15;79.35;100193.21;1745389;82;20280;-56
2021/03/24 03:34:03;;;;;;;;;;;;;;;2.19;79.44;100202.27;1745521;82;20247;-55
2021/03/24 03:37:08;;;;;;;;;;;;;;;2.20;79.13;100204.49;1745663;82;20211;-56
2021/03/24 03:40:16;;;;;;;;;;;;;;;2.24;79.08;100218.95;1745362;82;20215;-56
2021/03/24 03:43:23;;;;;;;;;;;;;;;2.22;78.73;100218.22;1745704;82;20222;-56
2021/03/24 03:46:30;;;;;;;;;;;;;;;2.16;78.70;100207.06;1746373;81;20239;-56
2021/03/24 03:49:34;;;;;;;;;;;;;;;2.14;78.84;100232.01;1750970;81;20510;-56
2021/03/24 03:52:45;;;;;;;;;;;;;;;2.14;78.85;100234.70;1756171;81;20215;-55
2021/03/24 03:55:59;;;;;;;;;;;;;;;2.20;78.88;100235.55;1751562;81;20203;-55
2021/03/24 03:59:21;;;;;;;;;;;;;;;2.25;78.71;100230.63;1756335;81;20310;-55
2021/03/24 04:02:25;;;;;;;;;;;;;;;2.31;78.49;100239.56;1755900;82;20282;-56
2021/03/24 04:05:32;;;;;;;;;;;;;;;2.25;78.29;100242.78;1751170;81;20191;-56
2021/03/24 04:08:41;;;;;;;;;;;;;;;2.22;78.63;100237.64;1750912;81;20246;-56
2021/03/24 04:11:48;;;;;;;;;;;;;;;2.26;78.69;100252.58;1755898;82;20211;-56
2021/03/24 04:14:52;;;;;;;;;;;;;;;2.33;78.65;100247.89;1751569;81;20234;-56
2021/03/24 04:18:05;;;;;;;;;;;;;;;2.38;78.14;100262.39;1756229;81;20294;-55
2021/03/24 04:21:11;;;;;;;;;;;;;;;2.36;78.04;100253.55;1750951;82;20203;-56
2021/03/24 04:24:20;;;;;;;;;;;;;;;2.36;77.81;100263.00;1757040;81;20283;-55
2021/03/24 04:27:27;;;;;;;;;;;;;;;2.41;77.92;100252.68;1751289;81;20211;-56
2021/03/24 04:30:40;;;;;;;;;;;;;;;2.53;77.80;100259.27;1755972;82;20203;-55
2021/03/24 04:33:46;;;;;;;;;;;;;;;2.65;77.53;100258.70;1750874;81;20200;-56
2021/03/24 04:36:55;;;;;;;;;;;;;;;2.76;77.02;100261.36;1756184;81;20264;-56
2021/03/24 04:40:05;;;;;;;;;;;;;;;2.81;76.63;100264.53;1756197;81;20319;-56
2021/03/24 04:43:17;;;;;;;;;;;;;;;2.78;75.92;100261.61;1751150;81;20559;-55
2021/03/24 04:46:31;;;;;;;;;;;;;;;2.73;76.14;100275.14;1756010;81;20310;-55
2021/03/24 04:49:36;;;;;;;;;;;;;;;2.74;75.85;100276.88;1737648;82;20548;-55
2021/03/24 04:52:42;;;;;;;;;;;;;;;2.82;75.93;100284.68;1702596;84;20208;-55
2021/03/24 04:55:48;;;;;;;;;;;;;;;2.88;75.60;100281.48;1705222;82;20319;-55
2021/03/24 04:58:54;;;;;;;;;;;;;;;2.90;75.43;100282.70;1702430;84;20224;-55
2021/03/24 05:02:03;;;;;;;;;;;;;;;2.94;75.29;100282.80;1722637;82;20279;-56
2021/03/24 05:05:11;;;;;;;;;;;;;;;2.95;75.19;100276.39;1739772;82;20204;-56
2021/03/24 05:08:27;;;;;;;;;;;;;;;2.88;79.70;100300.41;1739616;82;20244;-56
2021/03/24 05:11:37;;;;;;;;;;;;;;;2.91;80.77;100297.92;1739682;82;20540;-56
2021/03/24 05:14:59;;;;;;;;;;;;;;;2.90;80.82;100306.52;1739617;82;20208;-56
2021/03/24 05:18:05;;;;;;;;;;;;;;;2.94;81.10;100303.06;1739713;82;20516;-56
2021/03/24 05:21:14;;;;;;;;;;;;;;;3.18;81.30;100311.80;1739855;82;20639;-56
2021/03/24 05:24:20;;;;;;;;;;;;;;;3.29;80.42;100315.80;1739873;82;20303;-55
2021/03/24 05:27:26;;;;;;;;;;;;;;;3.30;80.01;100313.45;1739738;82;20219;-56
2021/03/24 05:30:39;;;;;;;;;;;;;;;3.40;79.68;100319.80;1739712;82;20203;-57
2021/03/24 05:33:45;;;;;;;;;;;;;;;3.43;79.17;100316.82;1739716;82;20215;-56
2021/03/24 05:36:55;;;;;;;;;;;;;;;3.51;78.73;100316.15;1739643;82;20310;-56
2021/03/24 05:39:58;;;;;;;;;;;;;;;3.52;78.06;100313.83;1737985;82;20674;-56
2021/03/24 05:43:11;;;;;;;;;;;;;;;3.55;77.06;100318.45;1739368;82;20203;-56
2021/03/24 05:46:24;;;;;;;;;;;;;;;3.59;76.00;100322.63;1738828;82;20225;-55
2021/03/24 05:49:38;;;;;;;;;;;;;;;3.52;75.10;100325.48;1745314;81;20252;-55
2021/03/24 05:53:10;;;;;;;;;;;;;;;3.69;74.53;100329.45;1748755;82;20597;-56
2021/03/24 05:56:24;;;;;;;;;;;;;;;3.89;73.29;100333.48;1700971;84;20256;-57
2021/03/24 05:59:56;;;;;;;;;;;;;;;3.88;72.08;100341.25;1654854;86;20205;-56
2021/03/24 06:03:13;;;;;;;;;;;;;;;3.82;71.58;100358.01;1721308;83;20278;-57
2021/03/24 06:06:31;;;;;;;;;;;;;;;3.81;71.41;100359.01;1714923;83;20219;-55
2021/03/24 06:10:02;;;;;;;;;;;;;;;3.91;71.25;100361.29;1697603;83;20439;-57
2021/03/24 06:13:21;;;;;;;;;;;;;;;4.02;70.72;100357.62;1750018;82;20280;-56
2021/03/24 06:16:47;;;;;;;;;;;;;;;4.03;70.40;100366.97;1754417;81;20658;-56
2021/03/24 06:20:09;;;;;;;;;;;;;;;4.15;70.15;100365.03;1754636;82;20257;-56
2021/03/24 06:23:19;;;;;;;;;;;;;;;4.24;69.69;100370.50;1758094;81;20267;-55
2021/03/24 06:26:47;;;;;;;;;;;;;;;4.28;69.26;100373.28;1759535;80;20608;-56
2021/03/24 06:30:12;;;;;;;;;;;;;;;4.40;69.36;100368.63;1754891;81;20573;-56
2021/03/24 06:33:28;;;;;;;;;;;;;;;4.53;68.50;100372.80;1755705;82;20619;-56
2021/03/24 06:36:50;;;;;;;;;;;;;;;4.56;68.33;100374.39;1725286;83;20641;-56
2021/03/24 06:40:19;;;;;;;;;;;;;;;4.58;67.93;100377.31;1720837;83;20300;-56
2021/03/24 06:43:55;;;;;;;;;;;;;;;4.66;67.69;100380.72;1726663;82;20607;-57
2021/03/24 06:47:23;;;;;;;;;;;;;;;4.57;67.36;100376.09;1751141;82;20199;-57
2021/03/24 06:50:34;;;;;;;;;;;;;;;4.47;67.50;100381.48;1743689;79;20313;-55
2021/03/24 06:54:17;;;;;;;;;;;;;;;4.53;67.52;100380.93;1710362;84;20213;-55
2021/03/24 06:58:03;;;;;;;;;;;;;;;4.62;66.96;100390.10;1683679;83;20222;-56
2021/03/24 07:01:30;;;;;;;;;;;;;;;4.69;66.83;100394.47;1673203;85;20214;-55
2021/03/24 07:04:49;;;;;;;;;;;;;;;4.71;66.78;100404.70;1710605;83;20251;-55
2021/03/24 07:08:23;;;;;;;;;;;;;;;4.84;66.51;100401.20;1673136;85;20238;-57
2021/03/24 07:11:57;;;;;;;;;;;;;;;4.84;66.04;100404.78;1710405;83;20241;-55
2021/03/24 07:15:38;;;;;;;;;;;;;;;4.86;65.89;100408.72;1672498;85;20247;-56
2021/03/24 07:18:59;;;;;;;;;;;;;;;4.70;65.26;100411.95;1682400;85;20545;-56
2021/03/24 07:22:22;;;;;;;;;;;;;;;4.54;65.81;100413.84;1680212;85;20222;-57
2021/03/24 07:25:30;;;;;;;;;;;;;;;4.60;65.69;100421.90;1703163;83;20211;-58
2021/03/24 07:28:55;;;;;;;;;;;;;;;4.63;65.40;100425.20;1710276;83;20212;-57
2021/03/24 07:32:22;;;;;;;;;;;;;;;4.74;65.26;100437.79;1742629;82;20338;-57
2021/03/24 07:35:48;;;;;;;;;;;;;;;4.97;64.84;100431.16;1742417;82;20517;-53
2021/03/24 07:39:13;;;;;;;;;;;;;;;5.15;64.08;100436.77;1742613;82;20538;-54
2021/03/24 07:42:36;;;;;;;;;;;;;;;5.18;63.68;100450.05;1742517;82;20285;-53
2021/03/24 07:46:01;;;;;;;;;;;;;;;5.15;63.22;100443.06;1710850;83;20278;-52
2021/03/24 07:49:27;;;;;;;;;;;;;;;5.27;62.88;100438.34;1680405;84;20220;-53
2021/03/24 07:52:40;;;;;;;;;;;;;;;5.23;62.54;100431.50;1711168;84;20563;-54
2021/03/24 07:55:49;;;;;;;;;;;;;;;5.19;62.54;100457.19;1717414;82;20219;-54
2021/03/24 07:59:21;;;;;;;;;;;;;;;5.28;62.31;100455.02;1711318;84;20248;-54
2021/03/24 08:02:41;;;;;;;;;;;;;;;5.44;62.34;100459.39;1711241;83;20208;-54
2021/03/24 08:06:05;;;;;;;;;;;;;;;5.47;61.55;100465.89;1711405;83;20259;-53
2021/03/24 08:09:22;;;;;;;;;;;;;;;5.60;61.20;100451.52;1711664;84;20332;-51
2021/03/24 08:12:37;;;;;;;;;;;;;;;5.81;61.22;100460.38;1711808;83;20244;-55
2021/03/24 08:16:04;;;;;;;;;;;;;;;6.07;59.78;100465.62;1708893;83;20468;-53
2021/03/24 08:19:36;;;;;;;;;;;;;;;6.15;60.04;100468.48;1712898;82;20319;-53
2021/03/24 08:23:06;;;;;;;;;;;;;;;6.29;59.58;100458.98;1704009;84;20681;-54
2021/03/24 08:26:36;;;;;;;;;;;;;;;6.35;59.02;100441.59;1710651;83;20610;-52
2021/03/24 08:30:06;;;;;;;;;;;;;;;6.46;58.87;100453.65;1710652;82;20575;-52
2021/03/24 08:33:33;;;;;;;;;;;;;;;6.66;58.63;100424.00;1702436;83;20281;-53
2021/03/24 08:37:03;;;;;;;;;;;;;;;6.69;57.69;100448.70;1707692;83;20232;-54
2021/03/24 08:40:28;;;;;;;;;;;;;;;6.59;58.10;100463.70;1717665;82;20206;-53
2021/03/24 08:43:52;;;;;;;;;;;;;;;6.33;57.41;100455.83;1726066;82;20214;-52
2021/03/24 08:47:09;;;;;;;;;;;;;;;6.06;57.41;100459.81;1710368;82;20211;-55
2021/03/24 08:50:21;;;;;;;;;;;;;;;5.96;57.42;100476.66;1716972;82;20656;-55
2021/03/24 08:53:42;;;;;;;;;;;;;;;5.85;58.31;100484.95;1727706;82;20242;-53
2021/03/24 08:57:07;;;;;;;;;;;;;;;5.90;57.97;100473.12;1729857;82;20209;-58
2021/03/24 09:00:32;;;;;;;;;;;;;;;6.08;58.36;100483.63;1728817;82;20237;-54
2021/03/24 09:03:43;;;;;;;;;;;;;;;6.32;57.97;100481.31;1726955;83;20198;-53
2021/03/24 09:07:16;;;;;;;;;;;;;;;6.41;56.76;100485.86;1728030;83;20308;-54
2021/03/24 09:10:36;;;;;;;;;;;;;;;6.33;57.15;100480.81;1718655;83;20543;-52
2021/03/24 09:14:18;;;;;;;;;;;;;;;6.26;56.58;100466.08;1728907;82;20213;-53
2021/03/24 09:17:32;;;;;;;;;;;;;;;6.04;56.42;100484.94;1729507;82;20329;-52
2021/03/24 09:21:00;;;;;;;;;;;;;;;6.00;56.57;100493.01;1730444;82;20246;-52
2021/03/24 09:24:22;;;;;;;;;;;;;;;6.06;57.05;100489.22;1730519;82;20186;-54
2021/03/24 09:27:47;;;;;;;;;;;;;;;6.10;55.95;100481.63;1732833;82;20285;-54
2021/03/24 09:31:26;;;;;;;;;;;;;;;5.85;55.42;100497.17;1733325;82;20273;-53
2021/03/24 09:34:54;;;;;;;;;;;;;;;5.64;56.61;100500.48;1730272;82;20214;-54
2021/03/24 09:38:07;;;;;;;;;;;;;;;5.81;57.20;100491.63;1728060;82;20246;-55
2021/03/24 09:41:27;;;;;;;;;;;;;;;5.84;56.26;100500.38;1726980;83;20328;-54
2021/03/24 09:44:46;;;;;;;;;;;;;;;5.80;56.19;100503.50;1708748;83;20549;-55
2021/03/24 09:48:00;;;;;;;;;;;;;;;5.63;55.92;100510.48;1715490;83;20298;-54
2021/03/24 09:51:11;;;;;;;;;;;;;;;5.37;56.48;100509.31;1697854;83;20200;-53
2021/03/24 09:54:21;;;;;;;;;;;;;;;5.22;57.02;100509.81;1708148;84;20289;-53
2021/03/24 09:57:27;;;;;;;;;;;;;;;5.23;57.68;100497.47;1709383;82;20219;-51
2021/03/24 10:00:34;;;;;;;;;;;;;;;5.36;57.69;100495.88;1705096;84;20239;-52
2021/03/24 10:03:56;;;;;;;;;;;;;;;5.43;57.71;100498.37;1686152;83;20253;-54
2021/03/24 10:07:11;;;;;;;;;;;;;;;5.58;57.78;100506.48;1684823;84;20621;-53
2021/03/24 10:10:29;;;;;;;;;;;;;;;5.65;57.27;100488.12;1690042;83;20596;-54
2021/03/24 10:13:36;;;;;;;;;;;;;;;5.74;56.85;100500.00;1657306;86;20284;-53
2021/03/24 10:16:42;;;;;;;;;;;;;;;5.70;56.64;100491.77;1695677;84;20208;-53
2021/03/24 10:20:06;;;;;;;;;;;;;;;5.72;56.67;100499.27;1695663;83;20214;-53
2021/03/24 10:23:18;;;;;;;;;;;;;;;5.79;56.14;100482.75;1695296;85;20216;-54
2021/03/24 10:26:31;;;;;;;;;;;;;;;5.65;55.47;100489.48;1695069;83;20218;-54
2021/03/24 10:29:37;;;;;;;;;;;;;;;5.42;56.21;100483.94;1673283;85;20505;-54
2021/03/24 10:32:48;;;;;;;;;;;;;;;5.59;57.40;100478.32;1642983;86;20209;-54
2021/03/24 10:35:55;;;;;;;;;;;;;;;6.00;57.02;100480.78;1674844;84;20551;-53
2021/03/24 10:39:17;;;;;;;;;;;;;;;6.11;55.76;100476.55;1674134;85;20223;-53
2021/03/24 10:42:46;;;;;;;;;;;;;;;6.30;56.20;100464.28;1666959;86;20558;-54
2021/03/24 10:45:54;;;;;;;;;;;;;;;6.53;55.73;100463.44;1674260;85;20230;-54
2021/03/24 10:49:08;;;;;;;;;;;;;;;6.69;55.44;100460.42;1675498;85;20210;-54
2021/03/24 10:52:15;;;;;;;;;;;;;;;6.66;54.69;100464.80;1673233;84;20192;-53
2021/03/24 10:55:24;;;;;;;;;;;;;;;6.69;54.64;100456.34;1696684;83;20216;-52
2021/03/24 10:58:46;;;;;;;;;;;;;;;6.74;54.97;100456.75;1733801;82;20222;-52
2021/03/24 11:02:12;;;;;;;;;;;;;;;6.92;54.50;100452.24;1733343;82;20270;-53
2021/03/24 11:05:20;;;;;;;;;;;;;;;7.18;54.22;100449.14;1701811;83;20247;-51
2021/03/24 11:08:54;;;;;;;;;;;;;;;7.41;53.73;100445.48;1702932;83;20239;-54
2021/03/24 11:12:13;;;;;;;;;;;;;;;7.42;53.21;100436.33;1720316;83;20210;-54
2021/03/24 11:15:21;;;;;;;;;;;;;;;7.36;52.88;100441.87;1703548;84;20223;-53
2021/03/24 11:18:29;;;;;;;;;;;;;;;7.33;52.88;100425.84;1704520;84;20708;-54
2021/03/24 11:21:46;;;;;;;;;;;;;;;7.28;52.59;100440.91;1715208;83;20219;-54
2021/03/24 11:25:08;;;;;;;;;;;;;;;7.34;52.54;100437.60;1726891;82;20274;-52
2021/03/24 11:28:33;;;;;;;;;;;;;;;7.34;52.28;100441.16;1727209;83;20651;-54
2021/03/24 11:31:57;;;;;;;;;;;;;;;7.41;52.11;100434.09;1720185;82;20243;-54
2021/03/24 11:35:18;;;;;;;;;;;;;;;7.28;51.68;100434.10;1719949;83;20254;-54
2021/03/24 11:38:41;;;;;;;;;;;;;;;7.30;52.11;100432.96;1733240;82;20305;-53
2021/03/24 11:41:49;;;;;;;;;;;;;;;7.35;51.13;100422.47;1693802;83;20328;-53
2021/03/24 11:44:57;;;;;;;;;;;;;;;7.38;50.54;100422.16;1732451;82;20246;-55
2021/03/24 11:48:24;;;;;;;;;;;;;;;7.34;50.38;100428.91;1731982;82;20607;-52
2021/03/24 11:51:52;;;;;;;;;;;;;;;7.38;50.77;100419.44;1733050;82;20234;-52
2021/03/24 11:55:00;;;;;;;;;;;;;;;7.57;51.29;100424.73;1731764;79;20214;-53
2021/03/24 11:58:26;;;;;;;;;;;;;;;7.84;51.13;100430.59;1743131;82;20207;-52
2021/03/24 12:01:38;;;;;;;;;;;;;;;7.91;49.95;100411.73;1727238;82;20431;-53
2021/03/24 12:05:02;;;;;;;;;;;;;;;7.92;50.00;100417.03;1743442;82;20577;-53
2021/03/24 12:08:21;;;;;;;;;;;;;;;7.89;49.96;100411.03;1717012;83;20590;-53
2021/03/24 12:11:34;;;;;;;;;;;;;;;7.90;50.37;100410.88;1717102;83;20217;-53
2021/03/24 12:14:35;;;;;;;;;;;;;;;7.90;50.25;100415.45;1717852;83;20214;-53
2021/03/24 12:17:42;;;;;;;;;;;;;;;7.83;49.55;100415.76;1717347;83;20234;-52
2021/03/24 12:20:57;;;;;;;;;;;;;;;7.72;49.28;100416.00;1717520;83;20570;-53
2021/03/24 12:24:02;;;;;;;;;;;;;;;7.64;49.11;100425.80;1709265;83;20823;-55
2021/03/24 12:27:23;;;;;;;;;;;;;;;7.52;49.42;100426.20;1711065;83;20283;-53
2021/03/24 12:30:43;;;;;;;;;;;;;;;7.46;49.24;100419.52;1745620;81;20512;-53
2021/03/24 12:33:54;;;;;;;;;;;;;;;7.44;49.36;100413.85;1746301;81;20222;-54
2021/03/24 12:37:02;;;;;;;;;;;;;;;7.37;49.25;100423.67;1716923;83;20234;-54
2021/03/24 12:40:15;;;;;;;;;;;;;;;7.31;49.95;100418.33;1716488;83;20225;-54
2021/03/24 12:43:35;;;;;;;;;;;;;;;7.39;50.26;100417.55;1720607;82;20636;-54
2021/03/24 12:47:01;;;;;;;;;;;;;;;7.47;50.51;100424.44;1747230;81;20219;-52
2021/03/24 12:50:17;;;;;;;;;;;;;;;7.46;50.20;100424.97;1686068;84;20524;-53
2021/03/24 12:53:36;;;;;;;;;;;;;;;7.24;50.36;100436.30;1695817;83;20306;-50
2021/03/24 12:57:02;;;;;;;;;;;;;;;7.06;49.82;100414.98;1693250;82;20252;-52
2021/03/24 13:00:26;;;;;;;;;;;;;;;6.98;50.33;100428.50;1695716;83;20231;-51
2021/03/24 13:03:57;;;;;;;;;;;;;;;6.99;49.69;100417.13;1695099;84;20258;-52
2021/03/24 13:07:25;;;;;;;;;;;;;;;6.98;49.73;100427.14;1699202;83;20232;-51
2021/03/24 13:10:52;;;;;;;;;;;;;;;7.00;49.56;100424.27;1682377;84;20250;-53
2021/03/24 13:14:33;;;;;;;;;;;;;;;6.88;49.26;100431.77;1696065;84;20298;-52
2021/03/24 13:17:42;;;;;;;;;;;;;;;6.81;49.72;100437.48;1698267;82;20208;-52
2021/03/24 13:21:06;;;;;;;;;;;;;;;6.89;49.97;100440.80;1709184;82;20203;-54
2021/03/24 13:24:33;;;;;;;;;;;;;;;7.01;49.46;100436.85;1670291;86;20223;-53
2021/03/24 13:27:46;;;;;;;;;;;;;;;7.02;49.13;100432.65;1670870;85;20211;-52
2021/03/24 13:31:00;;;;;;;;;;;;;;;6.94;49.58;100447.52;1671161;86;20226;-52
2021/03/24 13:34:14;;;;;;;;;;;;;;;6.97;49.88;100457.23;1668917;85;20218;-50
2021/03/24 13:37:25;;;;;;;;;;;;;;;7.01;48.71;100430.05;1696152;84;20208;-52
2021/03/24 13:40:39;;;;;;;;;;;;;;;6.96;48.73;100431.03;1690270;83;20208;-52
2021/03/24 13:44:07;;;;;;;;;;;;;;;7.00;49.02;100444.19;1739005;82;20259;-51
2021/03/24 13:47:23;;;;;;;;;;;;;;;6.99;49.02;100442.97;1706762;83;20263;-53
2021/03/24 13:50:36;;;;;;;;;;;;;;;6.96;49.09;100448.20;1729058;81;20214;-53
2021/03/24 13:53:59;;;;;;;;;;;;;;;6.94;49.27;100458.41;1688258;83;20277;-53
2021/03/24 13:57:10;;;;;;;;;;;;;;;6.86;49.23;100458.30;1711565;83;20589;-52
2021/03/24 14:00:46;;;;;;;;;;;;;;;6.78;49.29;100441.86;1700178;84;20217;-53
2021/03/24 14:04:14;;;;;;;;;;;;;;;6.68;49.20;100458.72;1744078;82;20199;-52
2021/03/24 14:07:40;;;;;;;;;;;;;;;6.61;49.52;100447.23;1745177;82;20246;-54
2021/03/24 14:10:49;;;;;;;;;;;;;;;6.61;49.55;100454.86;1744458;82;20207;-53
2021/03/24 14:14:19;;;;;;;;;;;;;;;6.52;49.32;100446.74;1744547;82;20519;-52
2021/03/24 14:17:35;;;;;;;;;;;;;;;6.49;49.49;100458.79;1748701;81;20207;-53
2021/03/24 14:21:11;;;;;;;;;;;;;;;6.46;49.26;100449.56;1742003;82;20221;-53
2021/03/24 14:24:35;;;;;;;;;;;;;;;6.41;49.68;100455.08;1740071;82;20288;-53
2021/03/24 14:27:45;;;;;;;;;;;;;;;6.43;50.04;100466.67;1733582;82;20210;-53
2021/03/24 14:31:16;;;;;;;;;;;;;;;6.39;49.84;100476.98;1738526;82;20216;-52
2021/03/24 14:34:30;;;;;;;;;;;;;;;6.36;49.83;100470.48;1731861;81;20199;-54
2021/03/24 14:37:42;;;;;;;;;;;;;;;6.30;49.58;100472.92;1740256;82;20250;-52
2021/03/24 14:40:55;;;;;;;;;;;;;;;6.19;50.17;100464.45;1713238;82;20211;-52
2021/03/24 14:44:28;;;;;;;;;;;;;;;6.19;50.40;100476.67;1685673;83;20254;-52
2021/03/24 14:47:43;;;;;;;;;;;;;;;6.15;50.34;100472.55;1735090;82;20261;-50
2021/03/24 14:50:49;;;;;;;;;;;;;;;6.12;50.62;100452.43;1707375;82;20224;-52
2021/03/24 14:53:54;;;;;;;;;;;;;;;6.11;50.70;100468.39;1738638;81;20207;-53
2021/03/24 14:57:12;;;;;;;;;;;;;;;6.07;50.81;100473.78;1728870;82;20216;-54
2021/03/24 15:00:37;;;;;;;;;;;;;;;6.09;51.61;100483.48;1704546;83;20497;-53
2021/03/24 15:03:42;;;;;;;;;;;;;;;6.09;52.09;100478.55;1708965;83;20556;-53
2021/03/24 15:06:49;;;;;;;;;;;;;;;6.02;52.32;100496.45;1704629;83;20207;-54
2021/03/24 15:09:54;;;;;;;;;;;;;;;5.96;52.67;100491.59;1696084;83;20259;-52
2021/03/24 15:13:02;;;;;;;;;;;;;;;5.95;52.58;100495.29;1710303;83;20263;-53
2021/03/24 15:16:16;;;;;;;;;;;;;;;5.92;52.53;100492.87;1709341;83;20220;-53
2021/03/24 15:19:55;;;;;;;;;;;;;;;5.91;52.49;100496.07;1714843;83;20413;-53
2021/03/24 15:23:06;;;;;;;;;;;;;;;5.89;52.15;100497.23;1681810;84;20314;-54
2021/03/24 15:26:37;;;;;;;;;;;;;;;5.85;51.84;100501.25;1642962;87;20217;-54
2021/03/24 15:29:48;;;;;;;;;;;;;;;5.86;51.55;100497.03;1643538;86;20221;-54
2021/03/24 15:33:03;;;;;;;;;;;;;;;5.89;51.49;100509.45;1643698;86;20672;-55
2021/03/24 15:36:13;;;;;;;;;;;;;;;5.90;51.18;100512.03;1643414;87;20214;-54
2021/03/24 15:39:37;;;;;;;;;;;;;;;5.87;50.68;100515.52;1643111;86;20213;-54
2021/03/24 15:42:58;;;;;;;;;;;;;;;5.76;51.32;100508.84;1643202;87;20837;-55
2021/03/24 15:46:04;;;;;;;;;;;;;;;5.62;51.64;100523.70;1644237;86;20231;-53
2021/03/24 15:49:45;;;;;;;;;;;;;;;5.52;52.14;100521.95;1643426;87;20598;-56
2021/03/24 15:52:58;;;;;;;;;;;;;;;5.48;52.52;100521.41;1643941;87;20221;-54
2021/03/24 15:56:03;;;;;;;;;;;;;;;5.50;52.64;100525.34;1647997;86;20197;-54
2021/03/24 15:59:14;;;;;;;;;;;;;;;5.42;52.68;100527.37;1682148;83;20339;-54
2021/03/24 16:02:36;;;;;;;;;;;;;;;5.35;52.92;100528.94;1720616;83;20292;-54
2021/03/24 16:05:47;;;;;;;;;;;;;;;5.35;53.09;100537.08;1721106;83;20257;-55
2021/03/24 16:09:15;;;;;;;;;;;;;;;5.40;53.20;100527.16;1742578;81;20639;-54
2021/03/24 16:12:54;;;;;;;;;;;;;;;5.40;53.13;100539.38;1722534;83;20273;-54
2021/03/24 16:16:24;;;;;;;;;;;;;;;5.39;53.20;100540.38;1722859;83;20249;-54
2021/03/24 16:19:48;;;;;;;;;;;;;;;5.44;53.33;100547.62;1748746;81;20243;-55
2021/03/24 16:23:12;;;;;;;;;;;;;;;5.43;53.12;100548.11;1775009;80;20458;-54
2021/03/24 16:26:36;;;;;;;;;;;;;;;5.41;53.08;100551.94;1772469;80;20237;-54
2021/03/24 16:30:07;;;;;;;;;;;;;;;5.34;53.18;100561.65;1750888;82;20214;-54
2021/03/24 16:33:36;;;;;;;;;;;;;;;5.30;53.47;100554.77;1746655;82;20206;-54
2021/03/24 16:37:03;;;;;;;;;;;;;;;5.31;53.40;100561.93;1750852;82;20564;-55
2021/03/24 16:40:20;;;;;;;;;;;;;;;5.26;53.57;100557.41;1750743;81;20207;-55
2021/03/24 16:43:37;;;;;;;;;;;;;;;5.28;53.85;100564.92;1751383;81;20218;-54
2021/03/24 16:47:19;;;;;;;;;;;;;;;5.29;54.23;100573.41;1749397;82;20249;-54
2021/03/24 16:50:56;;;;;;;;;;;;;;;5.36;54.35;100566.45;1715632;83;20212;-55
2021/03/24 16:54:20;;;;;;;;;;;;;;;5.36;54.38;100570.52;1736689;82;20359;-55
2021/03/24 16:57:56;;;;;;;;;;;;;;;5.33;54.62;100573.48;1753135;82;20265;-55
2021/03/24 17:01:15;;;;;;;;;;;;;;;5.29;54.73;100584.27;1740079;82;20550;-55